Time;durP1;ratioP1;P1;durP2;ratioP2;P2;SDS_P1;SDS_P2;PMS_P1;PMS_P2;Temp;Humidity;BMP_temperature;BMP_pressure;BME280_temperature;BME280_humidity;BME280_pressure;Samples;Min_cycle;Max_cycle;Signal;HPM_P1;HPM_P2
2021/07/19 00:00:36;;;;;;;36.70;33.10;;;;;;;19.75;nan;98856.41;2089060;28;20245;-71
2021/07/19 00:01:37;;;;;;;35.93;32.17;;;;;;;19.75;nan;98848.28;2088436;28;20521;-71
2021/07/19 00:03:05;;;;;;;37.47;32.10;;;;;;;19.81;nan;98853.38;2089130;28;20920;-71
2021/07/19 00:04:06;;;;;;;39.70;32.10;;;;;;;19.88;nan;98851.56;2089056;28;20454;-71
2021/07/19 00:05:09;;;;;;;37.37;32.33;;;;;;;19.92;nan;98859.75;2088754;28;20450;-72
2021/07/19 00:06:10;;;;;;;36.80;32.90;;;;;;;19.91;nan;98863.63;2089100;28;20223;-71
2021/07/19 00:07:11;;;;;;;35.90;32.37;;;;;;;19.90;nan;98862.06;2088822;28;20443;-71
2021/07/19 00:08:37;;;;;;;35.13;31.47;;;;;;;19.88;nan;98864.31;2088991;28;20218;-72
2021/07/19 00:09:38;;;;;;;36.47;32.77;;;;;;;19.88;nan;98867.03;2088754;28;21015;-71
2021/07/19 00:10:39;;;;;;;35.67;32.00;;;;;;;19.84;nan;98863.50;2088932;28;20639;-72
2021/07/19 00:11:42;;;;;;;40.03;32.37;;;;;;;19.82;nan;98860.38;2089542;28;20453;-71
2021/07/19 00:12:43;;;;;;;36.17;32.13;;;;;;;19.84;nan;98871.63;2089744;28;20218;-71
2021/07/19 00:13:47;;;;;;;36.63;32.90;;;;;;;19.84;nan;98866.19;2088783;28;20457;-72
2021/07/19 00:14:48;;;;;;;38.57;33.87;;;;;;;19.83;nan;98867.34;2088814;28;20940;-71
2021/07/19 00:15:49;;;;;;;36.93;33.00;;;;;;;19.87;nan;98868.19;2088875;28;20453;-72
2021/07/19 00:16:50;;;;;;;36.23;32.40;;;;;;;19.87;nan;98879.00;2089604;28;20222;-71
2021/07/19 00:17:53;;;;;;;34.87;31.37;;;;;;;19.85;nan;98873.97;2089663;28;20450;-72
2021/07/19 00:18:55;;;;;;;36.40;31.87;;;;;;;19.85;nan;98873.19;2089241;28;20709;-71
2021/07/19 00:20:22;;;;;;;36.30;32.57;;;;;;;19.79;nan;98869.97;2089429;28;20450;-71
2021/07/19 00:21:48;;;;;;;34.93;31.37;;;;;;;19.77;nan;98873.06;2088852;28;20851;-71
2021/07/19 00:24:04;;;;;;;37.03;32.10;;;;;;;19.75;nan;98872.66;2087494;28;20468;-71
2021/07/19 00:26:20;;;;;;;34.40;30.87;;;;;;;19.71;nan;98877.19;2088204;28;20816;-71
2021/07/19 00:28:36;;;;;;;35.83;31.50;;;;;;;19.68;nan;98886.06;2088166;28;20458;-71
2021/07/19 00:30:53;;;;;;;35.37;31.63;;;;;;;19.63;nan;98880.94;2093429;28;20453;-71
2021/07/19 00:33:10;;;;;;;35.83;30.53;;;;;;;19.62;nan;98884.78;2087233;28;20804;-71
2021/07/19 00:35:26;;;;;;;35.10;31.40;;;;;;;19.68;nan;98882.56;2087266;28;20461;-71
2021/07/19 00:37:42;;;;;;;35.93;31.33;;;;;;;19.75;nan;98888.09;2094456;28;20456;-72
2021/07/19 00:39:58;;;;;;;36.07;31.43;;;;;;;19.84;nan;98885.16;2087929;28;20473;-71
2021/07/19 00:42:14;;;;;;;36.47;32.77;;;;;;;19.86;nan;98883.66;2088181;28;20465;-71
2021/07/19 00:44:30;;;;;;;36.47;32.83;;;;;;;19.86;nan;98882.88;2088235;28;20465;-71
2021/07/19 00:46:46;;;;;;;36.83;33.10;;;;;;;19.93;nan;98881.06;2088176;28;20461;-71
2021/07/19 00:49:02;;;;;;;36.83;32.90;;;;;;;19.96;nan;98874.13;2088005;28;21091;-71
2021/07/19 00:51:18;;;;;;;37.43;33.50;;;;;;;19.94;nan;98874.50;2087995;28;20792;-72
2021/07/19 00:53:35;;;;;;;35.33;31.83;;;;;;;19.93;nan;98880.28;2087870;28;20536;-71
2021/07/19 00:55:51;;;;;;;38.50;33.50;;;;;;;19.87;nan;98885.22;2087378;28;20457;-72
2021/07/19 00:58:08;;;;;;;38.63;32.93;;;;;;;19.74;nan;98871.09;2093276;28;20452;-71
2021/07/19 01:00:24;;;;;;;31.40;28.23;;;;;;;19.62;nan;98868.53;2086746;28;20548;-71
2021/07/19 01:02:40;;;;;;;32.00;28.80;;;;;;;19.66;nan;98869.41;2095179;28;20484;-71
2021/07/19 01:04:56;;;;;;;30.93;25.20;;;;;;;19.69;nan;98868.66;2086764;28;20453;-71
2021/07/19 01:07:12;;;;;;;29.97;27.13;;;;;;;19.67;nan;98868.25;2094337;28;20832;-71
2021/07/19 01:09:28;;;;;;;27.50;24.73;;;;;;;19.72;nan;98867.97;2089917;28;20461;-71
2021/07/19 01:11:45;;;;;;;32.17;28.77;;;;;;;19.75;nan;98859.09;2091058;28;20393;-71
2021/07/19 01:14:01;;;;;;;26.67;24.00;;;;;;;19.82;nan;98854.97;2090604;28;20786;-71
2021/07/19 01:16:18;;;;;;;27.97;25.37;;;;;;;19.81;nan;98861.50;2091125;28;20394;-71
2021/07/19 01:18:34;;;;;;;27.60;24.90;;;;;;;19.81;nan;98853.38;2091167;28;20883;-71
2021/07/19 01:20:50;;;;;;;26.50;23.77;;;;;;;19.93;nan;98856.69;2090772;28;20454;-71
2021/07/19 06:21:07;;;;;;;24.17;21.97;;;;;;;21.23;nan;98961.16;409379;26;20759;-77
2021/07/19 06:22:10;;;;;;;25.40;22.87;;;;;;;21.28;nan;98954.63;2062825;28;20467;-77
2021/07/19 06:23:12;;;;;;;25.73;23.00;;;;;;;21.30;nan;98961.28;2063668;28;20602;-76
2021/07/19 06:24:13;;;;;;;25.77;23.10;;;;;;;21.33;nan;98960.53;2063034;28;20969;-77
2021/07/19 06:25:16;;;;;;;26.73;22.67;;;;;;;21.35;nan;98960.94;2063641;28;20949;-77
2021/07/19 06:26:17;;;;;;;28.93;24.43;;;;;;;21.39;nan;98959.06;2063042;28;20702;-78
2021/07/19 06:27:19;;;;;;;25.57;22.87;;;;;;;21.35;nan;98966.38;2063573;28;20444;-77
2021/07/19 06:28:19;;;;;;;26.30;23.40;;;;;;;21.28;nan;98963.56;2072165;28;20516;-77
2021/07/19 06:29:21;;;;;;;25.57;22.83;;;;;;;21.28;nan;98966.28;2072177;28;20447;-77
2021/07/19 06:30:22;;;;;;;24.40;22.20;;;;;;;21.22;nan;98969.66;2071746;28;20228;-78
2021/07/19 06:31:23;;;;;;;25.30;22.77;;;;;;;21.23;nan;98963.09;2062845;28;20447;-78
2021/07/19 06:32:24;;;;;;;25.23;22.63;;;;;;;21.27;nan;98966.66;2063331;28;20304;-77
2021/07/19 06:33:26;;;;;;;24.80;22.40;;;;;;;21.22;nan;98967.72;2071498;28;21117;-78
2021/07/19 06:34:26;;;;;;;25.13;22.77;;;;;;;21.25;nan;98966.22;2072177;28;20285;-78
2021/07/19 06:35:28;;;;;;;25.60;23.07;;;;;;;21.25;nan;98971.63;2072173;28;20443;-78
2021/07/19 06:36:31;;;;;;;24.40;22.00;;;;;;;21.22;nan;98973.16;2072274;28;20307;-78
2021/07/19 06:37:32;;;;;;;25.53;23.00;;;;;;;21.24;nan;98967.38;2072115;28;20936;-78
2021/07/19 06:38:33;;;;;;;25.87;23.47;;;;;;;21.38;nan;98970.28;2063428;28;20503;-78
2021/07/19 06:39:35;;;;;;;25.40;22.87;;;;;;;21.45;nan;98970.34;2063408;28;20997;-78
2021/07/19 06:40:35;;;;;;;24.53;22.03;;;;;;;21.50;nan;98970.03;2071510;28;20232;-81
2021/07/19 06:41:37;;;;;;;25.13;22.67;;;;;;;21.61;nan;98978.28;2071620;28;20535;-81
2021/07/19 06:42:38;;;;;;;25.07;22.47;;;;;;;21.68;nan;98973.72;2071120;28;20254;-82
2021/07/19 06:43:40;;;;;;;28.67;23.10;;;;;;;21.80;nan;98974.59;2063465;28;20501;-81
2021/07/19 06:44:40;;;;;;;24.03;21.97;;;;;;;21.90;nan;98974.72;2063466;28;20228;-75
2021/07/19 06:45:43;;;;;;;24.57;22.30;;;;;;;21.92;nan;98974.34;2072126;28;20447;-75
2021/07/19 06:46:44;;;;;;;23.70;21.53;;;;;;;21.95;nan;98977.09;2063302;28;20229;-75
2021/07/19 06:47:46;;;;;;;25.73;23.17;;;;;;;22.03;nan;98980.66;2063092;28;20568;-76
2021/07/19 06:48:46;;;;;;;29.27;22.73;;;;;;;22.02;nan;98970.94;2071633;28;20307;-75
2021/07/19 06:49:48;;;;;;;26.20;21.73;;;;;;;22.01;nan;98978.31;2072225;28;20457;-75
2021/07/19 06:50:49;;;;;;;30.10;22.70;;;;;;;22.01;nan;98981.03;2072074;28;20216;-75
2021/07/19 06:51:52;;;;;;;24.60;22.23;;;;;;;21.92;nan;98983.28;2072064;28;20455;-76
2021/07/19 06:52:53;;;;;;;26.07;22.50;;;;;;;21.89;nan;98984.03;2062344;28;20225;-79
2021/07/19 06:53:54;;;;;;;24.13;21.73;;;;;;;21.78;nan;98985.06;2063181;28;20851;-79
2021/07/19 06:54:55;;;;;;;24.83;22.47;;;;;;;21.75;nan;98988.53;2063177;28;20871;-79
2021/07/19 06:55:57;;;;;;;26.20;22.73;;;;;;;21.74;nan;98993.19;2071400;28;20474;-80
2021/07/19 06:56:58;;;;;;;24.43;22.17;;;;;;;21.78;nan;98991.28;2071577;28;20231;-75
2021/07/19 06:57:59;;;;;;;25.53;22.73;;;;;;;21.85;nan;98987.84;2062999;28;20437;-79
2021/07/19 06:59:00;;;;;;;24.97;22.47;;;;;;;21.81;nan;98987.84;2063440;28;20480;-79
2021/07/19 07:00:02;;;;;;;25.67;23.17;;;;;;;21.77;nan;98987.00;2062635;28;20464;-79
2021/07/19 07:01:03;;;;;;;24.40;22.17;;;;;;;21.75;nan;98989.31;2063270;28;20228;-79
2021/07/19 07:02:05;;;;;;;26.47;22.60;;;;;;;21.70;nan;98986.91;2073314;28;20462;-78
2021/07/19 07:03:05;;;;;;;24.33;22.23;;;;;;;21.66;nan;98986.13;2064916;28;20307;-78
2021/07/19 07:04:07;;;;;;;25.13;22.83;;;;;;;21.56;nan;98989.50;2056473;28;20456;-78
2021/07/19 07:05:09;;;;;;;24.57;22.23;;;;;;;21.61;nan;98994.56;2064797;28;20726;-74
2021/07/19 07:06:10;;;;;;;24.87;22.67;;;;;;;21.56;nan;98992.22;2073529;28;20451;-81
2021/07/19 07:07:13;;;;;;;24.60;22.30;;;;;;;21.41;nan;98992.03;2073612;28;20458;-82
2021/07/19 07:08:14;;;;;;;25.73;23.13;;;;;;;21.32;nan;98982.63;2064819;28;20507;-81
2021/07/19 07:09:15;;;;;;;24.97;22.43;;;;;;;21.27;nan;98991.84;2064975;28;20466;-81
2021/07/19 07:10:16;;;;;;;25.60;23.10;;;;;;;21.26;nan;98992.97;2073612;28;20446;-81
2021/07/19 07:11:17;;;;;;;25.53;22.77;;;;;;;21.23;nan;98991.00;2073610;28;20591;-82
2021/07/19 07:12:20;;;;;;;25.50;22.87;;;;;;;21.25;nan;98994.13;2073505;28;20450;-79
2021/07/19 07:13:20;;;;;;;26.23;23.43;;;;;;;21.28;nan;98989.91;2064883;28;20220;-80
2021/07/19 07:14:22;;;;;;;26.73;23.83;;;;;;;21.32;nan;98988.81;2056373;28;21001;-79
2021/07/19 07:15:23;;;;;;;43.30;30.50;;;;;;;21.21;nan;98987.88;2064395;28;20224;-79
2021/07/19 07:16:25;;;;;;;30.70;27.47;;;;;;;21.19;nan;98990.16;2072901;28;20526;-80
2021/07/19 07:17:25;;;;;;;26.47;23.77;;;;;;;21.23;nan;98996.44;2064781;28;20298;-80
2021/07/19 07:18:27;;;;;;;28.20;24.80;;;;;;;21.20;nan;98991.75;2064946;28;20503;-80
2021/07/19 07:19:28;;;;;;;26.17;22.80;;;;;;;21.18;nan;98989.38;2073093;28;20278;-80
2021/07/19 07:20:29;;;;;;;26.67;23.83;;;;;;;21.19;nan;98995.59;2073285;28;20467;-81
2021/07/19 07:21:31;;;;;;;27.40;23.67;;;;;;;21.15;nan;98990.13;2064470;28;20252;-80
2021/07/19 07:22:34;;;;;;;25.97;23.37;;;;;;;21.18;nan;98994.03;2056901;28;20457;-77
2021/07/19 07:23:34;;;;;;;25.43;22.73;;;;;;;21.21;nan;98995.25;2065163;28;20448;-76
2021/07/19 07:24:40;;;;;;;27.27;24.57;;;;;;;21.23;nan;98995.66;2072454;28;20948;-76
2021/07/19 07:25:41;;;;;;;26.10;23.60;;;;;;;21.19;nan;98992.88;2072795;28;20236;-79
2021/07/19 07:26:43;;;;;;;26.20;23.60;;;;;;;21.21;nan;98995.25;2073527;28;20455;-79
2021/07/19 07:27:43;;;;;;;30.63;26.87;;;;;;;21.26;nan;98994.91;2072854;28;20223;-75
2021/07/19 07:28:46;;;;;;;27.40;24.63;;;;;;;21.29;nan;98988.78;2072952;28;20444;-75
2021/07/19 07:29:46;;;;;;;27.37;24.57;;;;;;;21.30;nan;98988.41;2064794;28;20217;-78
2021/07/19 07:30:48;;;;;;;26.73;23.77;;;;;;;21.31;nan;98986.47;2064933;28;20544;-78
2021/07/19 07:31:49;;;;;;;26.83;24.23;;;;;;;21.30;nan;98984.91;2073662;28;20670;-78
2021/07/19 07:32:50;;;;;;;26.03;23.63;;;;;;;21.31;nan;98989.97;2073021;28;20812;-78
2021/07/19 07:33:51;;;;;;;27.33;24.43;;;;;;;21.29;nan;98986.84;2064939;28;20267;-78
2021/07/19 07:34:53;;;;;;;27.47;24.27;;;;;;;21.28;nan;98984.50;2064389;28;20472;-78
2021/07/19 07:35:54;;;;;;;26.80;23.87;;;;;;;21.28;nan;98985.25;2064230;28;20252;-78
2021/07/19 07:36:55;;;;;;;27.40;24.47;;;;;;;21.33;nan;98987.66;2064791;28;20459;-78
2021/07/19 07:37:57;;;;;;;26.57;23.70;;;;;;;21.43;nan;98988.94;2073502;28;20674;-77
2021/07/19 07:38:59;;;;;;;25.87;23.03;;;;;;;21.56;nan;98989.50;2072473;28;20447;-78
2021/07/19 07:40:00;;;;;;;25.30;22.70;;;;;;;21.68;nan;98983.81;2064584;28;20475;-78
2021/07/19 07:41:02;;;;;;;25.83;23.10;;;;;;;21.80;nan;98986.25;2064739;28;20450;-77
2021/07/19 07:42:03;;;;;;;24.37;22.27;;;;;;;21.93;nan;98984.06;2064603;28;20225;-78
2021/07/19 07:43:04;;;;;;;26.30;23.70;;;;;;;22.08;nan;98982.28;2064654;28;20838;-78
2021/07/19 07:44:05;;;;;;;41.57;23.80;;;;;;;22.21;nan;98978.13;2064575;28;20460;-79
2021/07/19 07:45:08;;;;;;;27.63;23.40;;;;;;;22.31;nan;98991.03;2056165;28;20931;-77
2021/07/19 07:46:09;;;;;;;27.07;24.23;;;;;;;22.45;nan;98987.66;2055968;28;20228;-81
2021/07/19 07:47:11;;;;;;;27.20;24.20;;;;;;;22.52;nan;98987.72;2063932;28;20456;-78
2021/07/19 07:48:12;;;;;;;26.47;23.90;;;;;;;22.63;nan;98995.94;2064883;28;20926;-78
2021/07/19 07:49:14;;;;;;;27.53;23.20;;;;;;;22.69;nan;98989.00;2064581;28;20470;-76
2021/07/19 07:50:14;;;;;;;24.60;22.20;;;;;;;22.71;nan;98986.66;2064185;28;20227;-76
2021/07/19 07:51:16;;;;;;;29.47;26.53;;;;;;;22.74;nan;98980.47;2064184;28;20456;-75
2021/07/19 07:52:17;;;;;;;34.73;29.03;;;;;;;22.82;nan;98977.41;2064594;28;20259;-75
2021/07/19 07:53:20;;;;;;;36.37;29.17;;;;;;;22.67;nan;98972.25;2072674;28;21026;-75
2021/07/19 07:54:21;;;;;;;39.83;32.93;;;;;;;22.70;nan;98990.56;2072171;28;20454;-75
2021/07/19 07:55:22;;;;;;;72.20;51.97;;;;;;;22.65;nan;98983.50;2072374;28;20526;-76
2021/07/19 07:56:23;;;;;;;27.97;24.77;;;;;;;22.74;nan;98983.97;2073178;28;20228;-77
2021/07/19 07:57:25;;;;;;;25.83;23.37;;;;;;;22.78;nan;98982.06;2073213;28;20546;-78
2021/07/19 07:58:25;;;;;;;26.17;23.07;;;;;;;22.81;nan;98981.28;2073326;28;20220;-77
2021/07/19 07:59:27;;;;;;;24.63;22.30;;;;;;;22.91;nan;98987.19;2072582;28;20522;-77
2021/07/19 08:00:28;;;;;;;25.53;22.87;;;;;;;22.97;nan;98986.47;2064304;28;20236;-78
2021/07/19 08:01:29;;;;;;;24.20;21.93;;;;;;;23.03;nan;98979.50;2056219;28;20457;-78
2021/07/19 08:02:30;;;;;;;25.67;22.27;;;;;;;23.04;nan;98983.00;2064394;28;20259;-78
2021/07/19 08:03:32;;;;;;;26.10;23.33;;;;;;;23.10;nan;98986.91;2064398;28;20449;-77
2021/07/19 08:04:33;;;;;;;27.03;23.40;;;;;;;23.04;nan;98986.50;2064482;28;20227;-78
2021/07/19 08:05:34;;;;;;;26.93;24.03;;;;;;;23.01;nan;98987.25;2064375;28;20446;-78
2021/07/19 08:06:35;;;;;;;26.40;23.50;;;;;;;23.02;nan;98988.84;2064483;28;20463;-77
2021/07/19 08:07:37;;;;;;;28.70;24.57;;;;;;;23.04;nan;98986.50;2073140;28;20443;-78
2021/07/19 08:08:41;;;;;;;26.70;24.00;;;;;;;23.02;nan;98988.84;2072354;28;20232;-77
2021/07/19 08:09:43;;;;;;;28.30;24.03;;;;;;;22.98;nan;98987.25;2073250;28;20462;-77
2021/07/19 08:10:44;;;;;;;32.23;24.63;;;;;;;22.87;nan;98989.91;2064320;28;20531;-77
2021/07/19 08:11:45;;;;;;;25.80;23.40;;;;;;;22.81;nan;98985.94;2064545;28;20945;-77
2021/07/19 08:12:47;;;;;;;28.07;24.47;;;;;;;22.79;nan;98985.56;2071982;28;20633;-74
2021/07/19 08:13:49;;;;;;;26.57;23.73;;;;;;;22.74;nan;98983.97;2063284;28;20444;-77
2021/07/19 08:14:49;;;;;;;29.37;24.40;;;;;;;22.70;nan;98974.22;2064442;28;20510;-77
2021/07/19 08:15:51;;;;;;;27.70;24.97;;;;;;;22.72;nan;98974.63;2073145;28;20436;-77
2021/07/19 08:16:52;;;;;;;25.03;22.33;;;;;;;22.74;nan;98983.19;2072734;28;20255;-76
2021/07/19 08:17:54;;;;;;;27.00;23.17;;;;;;;22.67;nan;98981.19;2064275;28;20519;-77
2021/07/19 08:18:54;;;;;;;25.20;22.63;;;;;;;22.73;nan;98981.63;2064349;28;20228;-76
2021/07/19 08:19:57;;;;;;;25.60;23.10;;;;;;;22.72;nan;98985.50;2064152;28;20464;-78
2021/07/19 08:20:58;;;;;;;26.13;23.53;;;;;;;22.70;nan;98980.44;2064497;28;20232;-78
2021/07/19 08:22:00;;;;;;;25.83;23.27;;;;;;;22.75;nan;98980.06;2072913;28;20455;-77
2021/07/19 08:23:01;;;;;;;24.87;22.67;;;;;;;22.77;nan;98983.22;2064330;28;20228;-78
2021/07/19 08:24:05;;;;;;;25.77;23.23;;;;;;;22.80;nan;98984.41;2064399;28;20488;-77
2021/07/19 08:25:06;;;;;;;29.53;23.83;;;;;;;22.88;nan;98982.53;2072868;28;20251;-74
2021/07/19 08:26:08;;;;;;;25.43;22.90;;;;;;;22.85;nan;98981.34;2063561;28;20452;-73
2021/07/19 08:27:09;;;;;;;25.50;22.97;;;;;;;22.80;nan;98984.41;2064399;28;21044;-73
2021/07/19 08:28:12;;;;;;;24.87;22.43;;;;;;;22.64;nan;98986.63;2072944;28;20802;-73
2021/07/19 08:29:13;;;;;;;25.33;22.93;;;;;;;22.46;nan;98987.25;2072996;28;20235;-74
2021/07/19 08:30:16;;;;;;;25.57;22.97;;;;;;;22.37;nan;98978.66;2063761;28;20471;-73
2021/07/19 08:31:16;;;;;;;25.23;22.83;;;;;;;22.29;nan;98980.53;2064508;28;20706;-74
2021/07/19 08:32:18;;;;;;;25.20;22.67;;;;;;;22.20;nan;98980.06;2063430;28;20989;-73
2021/07/19 08:33:18;;;;;;;24.53;22.33;;;;;;;22.11;nan;98974.16;2064459;28;20223;-74
2021/07/19 08:34:20;;;;;;;31.23;22.67;;;;;;;22.07;nan;98978.00;2073079;28;20455;-74
2021/07/19 08:35:21;;;;;;;37.20;32.27;;;;;;;22.08;nan;98974.16;2073056;28;20246;-73
2021/07/19 08:36:22;;;;;;;320.80;215.23;;;;;;;22.09;nan;98968.31;2072460;28;20479;-73
2021/07/19 08:37:24;;;;;;;32.53;27.20;;;;;;;22.01;nan;98964.72;2072925;28;20231;-75
2021/07/19 08:38:26;;;;;;;27.00;24.37;;;;;;;22.08;nan;98974.16;2072983;28;20558;-75
2021/07/19 08:39:28;;;;;;;25.70;23.27;;;;;;;22.10;nan;98977.25;2064248;28;21012;-75
2021/07/19 08:40:30;;;;;;;25.40;22.73;;;;;;;22.15;nan;98972.28;2055706;28;20461;-75
2021/07/19 08:41:30;;;;;;;26.43;23.73;;;;;;;22.14;nan;98973.41;2064342;28;20440;-75
2021/07/19 08:42:32;;;;;;;31.47;24.03;;;;;;;22.17;nan;98969.94;2072982;28;20481;-75
2021/07/19 08:43:33;;;;;;;26.00;23.63;;;;;;;22.17;nan;98978.09;2072979;28;20220;-75
2021/07/19 08:44:35;;;;;;;25.97;23.40;;;;;;;22.19;nan;98980.44;2072718;28;20447;-76
2021/07/19 08:45:35;;;;;;;25.27;22.33;;;;;;;22.20;nan;98969.19;2073032;28;20302;-75
2021/07/19 08:46:37;;;;;;;26.30;23.13;;;;;;;22.27;nan;98966.53;2072969;28;20444;-75
2021/07/19 08:47:39;;;;;;;25.77;23.47;;;;;;;22.39;nan;98961.97;2072562;28;20662;-74
2021/07/19 08:48:41;;;;;;;26.30;23.77;;;;;;;22.47;nan;98969.78;2072993;28;20463;-75
2021/07/19 08:49:42;;;;;;;32.00;24.43;;;;;;;22.52;nan;98965.94;2072254;28;20459;-77
2021/07/19 08:50:44;;;;;;;55.27;30.50;;;;;;;22.68;nan;98966.44;2064044;28;20452;-75
2021/07/19 08:51:45;;;;;;;35.00;26.00;;;;;;;22.87;nan;98967.38;2063934;28;20327;-79
2021/07/19 08:52:48;;;;;;;46.60;28.07;;;;;;;23.07;nan;98972.13;2063594;28;20452;-80
2021/07/19 08:53:51;;;;;;;38.10;25.87;;;;;;;23.22;nan;98964.03;2064279;28;20225;-76
2021/07/19 08:54:54;;;;;;;26.63;23.97;;;;;;;23.46;nan;98965.31;2072365;28;20920;-75
2021/07/19 08:55:56;;;;;;;34.17;25.40;;;;;;;23.57;nan;98964.16;2064111;28;20467;-75
2021/07/19 08:56:58;;;;;;;54.90;29.10;;;;;;;23.71;nan;98963.44;2064262;28;20514;-76
2021/07/19 08:58:00;;;;;;;26.47;23.87;;;;;;;23.86;nan;98969.69;2064203;28;20547;-75
2021/07/19 08:59:03;;;;;;;25.37;22.87;;;;;;;24.02;nan;98972.84;2064247;28;20524;-76
2021/07/19 09:00:06;;;;;;;25.67;23.37;;;;;;;24.11;nan;98965.06;2072707;28;20455;-76
2021/07/19 09:01:08;;;;;;;25.83;23.23;;;;;;;24.25;nan;98970.53;2071542;28;20474;-73
2021/07/19 09:02:10;;;;;;;25.77;23.27;;;;;;;24.37;nan;98971.31;2072259;28;20446;-76
2021/07/19 09:03:11;;;;;;;25.50;23.00;;;;;;;24.50;nan;98965.09;2063948;28;20463;-75
2021/07/19 09:04:16;;;;;;;25.37;22.87;;;;;;;24.65;nan;98959.59;2064106;28;20973;-75
2021/07/19 09:05:18;;;;;;;25.73;23.43;;;;;;;24.71;nan;98966.22;2072848;28;20443;-74
2021/07/19 09:06:19;;;;;;;25.83;23.13;;;;;;;24.77;nan;98964.66;2072680;28;20443;-78
2021/07/19 09:07:21;;;;;;;25.80;23.33;;;;;;;24.79;nan;98962.31;2072643;28;20461;-78
2021/07/19 09:08:21;;;;;;;26.20;23.80;;;;;;;24.84;nan;98967.34;2072491;28;20579;-77
2021/07/19 09:09:27;;;;;;;27.07;24.30;;;;;;;24.92;nan;98965.38;2071581;28;20528;-77
2021/07/19 09:10:30;;;;;;;26.30;23.77;;;;;;;24.95;nan;98961.88;2063823;28;20217;-80
2021/07/19 09:11:31;;;;;;;26.90;24.27;;;;;;;25.00;nan;98962.22;2064064;28;20467;-78
2021/07/19 09:12:35;;;;;;;25.97;23.53;;;;;;;25.09;nan;98961.84;2072698;28;20455;-78
2021/07/19 09:13:36;;;;;;;25.47;23.07;;;;;;;25.26;nan;98961.00;2072643;28;20224;-79
2021/07/19 09:14:41;;;;;;;25.57;22.97;;;;;;;25.29;nan;98960.22;2072251;28;20471;-76
2021/07/19 09:15:41;;;;;;;24.37;22.10;;;;;;;25.23;nan;98956.34;2063809;28;27600;-79
2021/07/19 09:16:44;;;;;;;24.90;22.73;;;;;;;25.14;nan;98955.22;2063905;28;20980;-78
2021/07/19 09:17:46;;;;;;;25.50;22.90;;;;;;;25.13;nan;98967.31;2071994;28;20216;-77
2021/07/19 09:19:01;;;;;;;25.03;22.53;;;;;;;25.08;nan;98955.59;2063791;28;20849;-79
2021/07/19 09:20:07;;;;;;;25.80;22.97;;;;;;;25.04;nan;98954.06;2065589;28;20465;-79
2021/07/19 09:21:28;;;;;;;26.57;23.50;;;;;;;24.75;nan;98959.56;2072039;28;20473;-78
2021/07/19 09:22:32;;;;;;;25.93;23.33;;;;;;;24.38;nan;98961.97;2071417;28;20452;-78
2021/07/19 09:23:33;;;;;;;24.77;22.47;;;;;;;24.30;nan;98949.47;2072099;28;20464;-79
2021/07/19 09:24:36;;;;;;;25.10;22.43;;;;;;;24.33;nan;98940.56;2072255;28;20980;-79
2021/07/19 09:25:39;;;;;;;24.27;21.80;;;;;;;24.31;nan;98945.56;2072078;28;20543;-76
2021/07/19 09:26:42;;;;;;;25.43;22.80;;;;;;;24.36;nan;98945.22;2072542;28;20487;-78
2021/07/19 09:27:54;;;;;;;24.73;22.43;;;;;;;24.41;nan;98945.63;2072530;28;20463;-78
2021/07/19 09:28:57;;;;;;;24.70;22.30;;;;;;;24.56;nan;98943.63;2063225;28;20460;-78
2021/07/19 09:29:58;;;;;;;23.57;21.60;;;;;;;24.59;nan;98939.34;2064114;28;20451;-79
2021/07/19 09:31:05;;;;;;;24.13;22.17;;;;;;;24.66;nan;98944.78;2071768;28;20453;-78
2021/07/19 09:32:06;;;;;;;24.33;22.03;;;;;;;24.72;nan;98940.47;2063690;28;20254;-79
2021/07/19 09:33:10;;;;;;;24.27;22.07;;;;;;;24.76;nan;98936.59;2055275;28;20453;-78
2021/07/19 09:34:11;;;;;;;25.37;22.77;;;;;;;24.79;nan;98943.97;2063965;28;20249;-77
2021/07/19 09:35:13;;;;;;;25.40;23.00;;;;;;;24.81;nan;98941.63;2071907;28;20535;-78
2021/07/19 09:36:21;;;;;;;25.10;22.50;;;;;;;24.87;nan;98942.00;2063520;28;20955;-78
2021/07/19 09:37:28;;;;;;;25.10;22.90;;;;;;;24.96;nan;98941.59;2056115;28;20457;-77
2021/07/19 09:38:30;;;;;;;25.47;23.00;;;;;;;24.96;nan;98952.50;2064838;28;20463;-79
2021/07/19 09:39:34;;;;;;;25.70;22.77;;;;;;;24.71;nan;98947.91;2063709;28;20457;-78
2021/07/19 09:40:37;;;;;;;25.80;22.73;;;;;;;24.49;nan;98943.63;2064014;28;20465;-78
2021/07/19 09:41:39;;;;;;;25.20;22.90;;;;;;;24.43;nan;98947.94;2072029;28;20498;-78
2021/07/19 09:42:42;;;;;;;24.03;22.00;;;;;;;24.38;nan;98945.59;2063598;28;20543;-77
2021/07/19 09:43:50;;;;;;;25.97;23.63;;;;;;;24.38;nan;98945.59;2063483;28;20858;-77
2021/07/19 09:44:53;;;;;;;25.27;22.73;;;;;;;24.48;nan;98951.03;2063236;28;20944;-76
2021/07/19 09:45:58;;;;;;;25.27;22.90;;;;;;;24.65;nan;98937.75;2063456;28;20461;-77
2021/07/19 09:47:00;;;;;;;24.73;22.40;;;;;;;24.87;nan;98938.50;2071918;28;20465;-77
2021/07/19 09:48:03;;;;;;;24.87;22.67;;;;;;;25.09;nan;98942.72;2071759;28;20793;-77
2021/07/19 09:49:05;;;;;;;26.40;23.80;;;;;;;25.16;nan;98945.44;2071976;28;20546;-74
2021/07/19 09:50:11;;;;;;;24.57;22.37;;;;;;;25.13;nan;98929.84;2072453;28;20488;-76
2021/07/19 09:51:12;;;;;;;24.27;22.17;;;;;;;25.14;nan;98938.81;2072031;28;20519;-76
2021/07/19 09:52:13;;;;;;;24.30;22.10;;;;;;;25.15;nan;98930.22;2071698;28;20447;-75
2021/07/19 09:53:15;;;;;;;24.53;22.33;;;;;;;25.12;nan;98935.72;2071853;28;20452;-75
2021/07/19 09:54:15;;;;;;;25.20;22.50;;;;;;;25.12;nan;98935.72;2063445;28;20225;-75
2021/07/19 09:55:23;;;;;;;24.73;22.20;;;;;;;25.04;nan;98934.97;2063682;28;20442;-76
2021/07/19 09:56:24;;;;;;;24.40;22.00;;;;;;;25.05;nan;98933.78;2072055;28;20301;-75
2021/07/19 09:57:27;;;;;;;24.47;22.27;;;;;;;25.07;nan;98936.91;2072223;28;20927;-75
2021/07/19 09:58:28;;;;;;;34.37;21.93;;;;;;;24.93;nan;98934.16;2072326;28;20230;-76
2021/07/19 09:59:30;;;;;;;26.67;21.73;;;;;;;24.76;nan;98928.41;2072307;28;20530;-75
2021/07/19 10:00:32;;;;;;;24.53;22.03;;;;;;;24.73;nan;98933.84;2072421;28;20222;-76
2021/07/19 10:01:35;;;;;;;24.67;22.10;;;;;;;24.56;nan;98932.72;2072228;28;20470;-76
2021/07/19 10:02:37;;;;;;;27.23;22.93;;;;;;;24.42;nan;98925.34;2072408;28;20451;-76
2021/07/19 10:03:39;;;;;;;24.27;21.73;;;;;;;24.33;nan;98926.91;2063180;28;20791;-76
2021/07/19 10:04:43;;;;;;;24.23;21.93;;;;;;;24.33;nan;98921.47;2063631;28;20994;-75
2021/07/19 10:05:45;;;;;;;24.43;21.73;;;;;;;24.32;nan;98922.59;2072159;28;20815;-76
2021/07/19 10:06:47;;;;;;;23.83;21.40;;;;;;;24.28;nan;98919.88;2072233;28;20502;-76
2021/07/19 10:07:49;;;;;;;24.27;22.03;;;;;;;24.29;nan;98917.91;2072344;28;20449;-75
2021/07/19 10:08:55;;;;;;;26.87;22.03;;;;;;;24.42;nan;98919.91;2072357;28;20481;-76
2021/07/19 10:09:57;;;;;;;25.53;22.77;;;;;;;24.54;nan;98910.50;2071988;28;20762;-75
2021/07/19 10:10:58;;;;;;;24.33;22.03;;;;;;;24.63;nan;98904.66;2071090;28;20540;-76
2021/07/19 10:12:04;;;;;;;24.63;22.33;;;;;;;24.71;nan;98906.97;2071684;28;20439;-75
2021/07/19 10:13:08;;;;;;;24.57;22.37;;;;;;;24.86;nan;98902.25;2071457;28;20226;-76
2021/07/19 10:14:10;;;;;;;28.97;23.47;;;;;;;24.92;nan;98908.06;2062572;28;20519;-76
2021/07/19 10:15:11;;;;;;;25.57;23.13;;;;;;;24.95;nan;98905.34;2055552;28;20500;-75
2021/07/19 10:16:13;;;;;;;24.80;22.40;;;;;;;25.10;nan;98906.06;2055652;28;20953;-75
2021/07/19 10:17:14;;;;;;;24.23;21.93;;;;;;;25.21;nan;98916.94;2063596;28;20995;-76
2021/07/19 10:18:17;;;;;;;24.77;22.53;;;;;;;25.20;nan;98909.94;2063064;28;20966;-76
2021/07/19 10:19:17;;;;;;;24.67;22.43;;;;;;;25.05;nan;98909.22;2063644;28;20529;-76
2021/07/19 10:20:19;;;;;;;24.77;22.30;;;;;;;25.01;nan;98902.94;2063336;28;20459;-81
2021/07/19 10:21:20;;;;;;;25.43;22.73;;;;;;;24.93;nan;98902.19;2063267;28;20257;-82
2021/07/19 10:22:22;;;;;;;25.53;22.97;;;;;;;24.82;nan;98901.47;2071384;28;20466;-81
2021/07/19 10:23:24;;;;;;;24.30;22.10;;;;;;;24.83;nan;98908.47;2062892;28;20462;-80
2021/07/19 10:24:25;;;;;;;25.43;23.07;;;;;;;24.77;nan;98908.13;2063330;28;20462;-78
2021/07/19 10:25:26;;;;;;;25.40;22.83;;;;;;;24.57;nan;98903.47;2064106;28;20523;-79